createdAt,value
2023-01-11T00:02:17.367Z,12.80
2023-01-11T00:04:47.554Z,6.87
2023-01-11T00:07:15.258Z,9.40
2023-01-11T00:09:42.996Z,13.73
2023-01-11T00:12:12.363Z,5.30
2023-01-11T00:14:40.082Z,11.47
2023-01-11T00:17:07.698Z,6.20
2023-01-11T00:19:35.265Z,6.33
2023-01-11T00:22:04.164Z,8.67
2023-01-11T00:24:31.775Z,16.43
2023-01-11T00:26:59.379Z,6.43
2023-01-11T00:29:26.968Z,11.73
2023-01-11T00:31:54.623Z,10.80
2023-01-11T00:34:22.301Z,6.20
2023-01-11T00:36:50.086Z,10.70
2023-01-11T00:39:19.160Z,5.00
2023-01-11T00:42:04.370Z,8.13
2023-01-11T00:44:49.830Z,10.87
2023-01-11T00:47:36.173Z,5.80
2023-01-11T00:50:03.934Z,6.23
2023-01-11T00:52:31.559Z,8.60
2023-01-11T00:55:00.468Z,8.47
2023-01-11T00:57:28.267Z,7.33
2023-01-11T00:59:55.824Z,12.47
2023-01-11T01:02:23.506Z,7.83
2023-01-11T01:04:51.257Z,9.90
2023-01-11T01:07:18.887Z,6.33
2023-01-11T01:09:48.489Z,11.07
2023-01-11T01:12:38.286Z,12.70
2023-01-11T01:15:06.018Z,9.40
2023-01-11T01:17:33.656Z,8.60
2023-01-11T01:20:01.333Z,5.43
2023-01-11T01:22:28.924Z,8.20
2023-01-11T01:24:56.511Z,6.03
2023-01-11T01:27:25.725Z,11.60
2023-01-11T01:29:53.350Z,6.33
2023-01-11T01:32:20.940Z,7.50
2023-01-11T01:34:48.575Z,7.10
2023-01-11T01:37:16.665Z,8.37
2023-01-11T01:39:44.328Z,8.20
2023-01-11T01:42:14.402Z,10.23
2023-01-11T01:45:01.449Z,8.10
2023-01-11T01:47:34.448Z,11.50
2023-01-11T01:50:04.733Z,10.13
2023-01-11T01:52:33.270Z,7.63
2023-01-11T01:55:03.394Z,5.90
2023-01-11T01:57:33.466Z,7.97
2023-01-11T02:00:04.636Z,8.03
2023-01-11T02:02:34.157Z,7.60
2023-01-11T02:05:02.402Z,8.10
2023-01-11T02:07:32.142Z,5.43
2023-01-11T02:10:01.802Z,7.97
2023-01-11T02:12:31.770Z,6.93
2023-01-11T02:15:02.103Z,6.80
2023-01-11T02:17:29.717Z,5.77
2023-01-11T02:20:03.076Z,7.30
2023-01-11T02:22:58.921Z,5.80
2023-01-11T02:26:06.090Z,6.60
2023-01-11T02:28:40.610Z,5.53
2023-01-11T02:31:14.296Z,4.40
2023-01-11T02:33:48.051Z,6.63
2023-01-11T02:36:23.229Z,6.27
2023-01-11T02:38:57.241Z,5.87
2023-01-11T02:41:56.166Z,3.57
2023-01-11T02:44:50.267Z,7.47
2023-01-11T02:47:42.668Z,5.60
2023-01-11T02:50:17.496Z,4.40
2023-01-11T02:52:57.736Z,5.10
2023-01-11T02:55:32.451Z,6.20
2023-01-11T02:58:02.708Z,6.50
2023-01-11T03:00:32.623Z,5.90
2023-01-11T03:03:17.326Z,4.70
2023-01-11T03:05:52.073Z,4.93
2023-01-11T03:08:45.132Z,4.87
2023-01-11T03:11:35.867Z,13.13
2023-01-11T03:31:11.354Z,3.37
2023-01-11T03:40:01.290Z,6.60
2023-01-11T03:47:20.696Z,4.20
2023-01-11T03:51:02.122Z,2.33
2023-01-11T03:56:39.997Z,13.23
2023-01-11T03:59:08.744Z,4.43
2023-01-11T04:02:04.439Z,2.30
2023-01-11T04:05:02.842Z,4.20
2023-01-11T04:07:30.523Z,3.50
2023-01-11T04:09:58.535Z,2.40
2023-01-11T04:12:26.242Z,2.03
2023-01-11T04:14:53.999Z,2.80
2023-01-11T04:17:21.711Z,2.30
2023-01-11T04:19:49.477Z,4.80
2023-01-11T04:22:18.410Z,2.10
2023-01-11T04:24:46.017Z,2.53
2023-01-11T04:27:13.627Z,3.73
2023-01-11T04:29:41.277Z,3.70
2023-01-11T04:32:10.131Z,3.10
2023-01-11T04:34:37.914Z,2.00
2023-01-11T04:37:05.597Z,3.73
2023-01-11T04:39:34.566Z,2.00
2023-01-11T04:42:20.252Z,3.43
2023-01-11T04:44:48.971Z,3.57
2023-01-11T04:47:17.374Z,2.10
2023-01-11T04:49:45.643Z,2.20
2023-01-11T04:52:15.500Z,3.53
2023-01-11T04:54:45.144Z,3.30
2023-01-11T04:57:14.812Z,3.20
2023-01-11T04:59:42.867Z,3.10
2023-01-11T05:02:10.433Z,2.90
2023-01-11T05:04:38.057Z,4.93
2023-01-11T05:07:05.828Z,4.47
2023-01-11T05:09:33.451Z,3.50
2023-01-11T05:12:02.613Z,3.80
2023-01-11T05:14:30.252Z,2.23
2023-01-11T05:16:58.833Z,3.50
2023-01-11T05:19:27.768Z,3.00
2023-01-11T05:21:55.353Z,2.47
2023-01-11T05:24:23.109Z,2.80
2023-01-11T05:26:52.369Z,2.60
2023-01-11T05:29:21.885Z,6.93
2023-01-11T05:31:49.742Z,5.20
2023-01-11T05:34:18.603Z,2.90
2023-01-11T05:36:46.721Z,2.40
2023-01-11T05:39:15.125Z,2.60
2023-01-11T05:41:43.052Z,3.20
2023-01-11T05:44:30.406Z,2.03
2023-01-11T05:46:59.746Z,3.27
2023-01-11T05:49:27.361Z,3.33
2023-01-11T05:51:55.156Z,2.30
2023-01-11T05:54:23.058Z,2.00
2023-01-11T05:56:50.666Z,2.90
2023-01-11T05:59:20.456Z,3.60
2023-01-11T06:01:48.915Z,1.90
2023-01-11T06:04:17.871Z,2.00
2023-01-11T06:06:45.499Z,2.70
2023-01-11T06:09:13.258Z,2.50
2023-01-11T06:11:40.879Z,5.57
2023-01-11T06:14:08.512Z,4.30
2023-01-11T06:16:36.135Z,1.80
2023-01-11T06:19:03.908Z,4.20
2023-01-11T06:21:32.913Z,3.37
2023-01-11T06:24:00.561Z,2.53
2023-01-11T06:26:28.287Z,2.00
2023-01-11T06:28:55.973Z,2.33
2023-01-11T06:31:23.704Z,2.60
2023-01-11T06:33:51.567Z,3.63
2023-01-11T06:36:19.504Z,1.83
2023-01-11T06:38:48.454Z,1.53
2023-01-11T06:41:16.354Z,1.60
2023-01-11T06:43:44.121Z,2.30
2023-01-11T06:46:13.273Z,2.30
2023-01-11T06:48:41.058Z,3.17
2023-01-11T06:51:11.066Z,2.50
2023-01-11T06:53:39.256Z,1.70
2023-01-11T06:56:09.204Z,1.90
2023-01-11T06:58:37.754Z,2.80
2023-01-11T07:01:06.187Z,1.73
2023-01-11T07:03:34.105Z,2.50
2023-01-11T07:06:02.959Z,2.30
2023-01-11T07:08:30.672Z,1.90
2023-01-11T07:10:58.438Z,3.40
2023-01-11T07:13:27.597Z,4.90
2023-01-11T07:15:58.192Z,2.87
2023-01-11T07:18:25.882Z,2.60
2023-01-11T07:20:53.563Z,3.00
2023-01-11T07:23:23.703Z,2.93
2023-01-11T07:25:51.390Z,3.60
2023-01-11T07:28:19.328Z,3.73
2023-01-11T07:30:58.201Z,3.27
2023-01-11T07:33:27.680Z,4.13
2023-01-11T07:35:55.502Z,4.00
2023-01-11T07:38:23.455Z,3.40
2023-01-11T07:40:51.116Z,3.70
2023-01-11T07:43:19.357Z,4.27
2023-01-11T07:45:50.130Z,3.70
2023-01-11T07:48:20.829Z,3.33
2023-01-11T07:50:49.119Z,3.50
2023-01-11T07:53:16.845Z,5.70
2023-01-11T07:55:44.479Z,4.20
2023-01-11T07:58:13.180Z,5.70
2023-01-11T08:00:41.942Z,7.03
2023-01-11T08:03:11.295Z,6.27
2023-01-11T08:05:39.135Z,4.70
2023-01-11T08:08:07.255Z,5.40
2023-01-11T08:10:35.212Z,4.50
2023-01-11T08:13:20.653Z,4.90
2023-01-11T08:15:48.472Z,8.90
2023-01-11T08:18:19.481Z,9.20
2023-01-11T08:20:47.669Z,5.90
2023-01-11T08:23:15.268Z,7.53
2023-01-11T08:25:42.846Z,10.00
2023-01-11T08:28:12.235Z,14.33
2023-01-11T08:30:39.943Z,11.87
2023-01-11T08:33:07.692Z,14.00
2023-01-11T08:35:40.260Z,6.70
2023-01-11T08:38:08.184Z,10.13
2023-01-11T08:40:36.057Z,6.30
2023-01-11T08:43:03.999Z,7.87
2023-01-11T08:45:31.893Z,8.57
2023-01-11T08:48:00.654Z,4.13
2023-01-11T08:50:28.496Z,5.07
2023-01-11T08:52:57.516Z,5.53
2023-01-11T08:55:25.175Z,8.03
2023-01-11T08:57:53.225Z,9.60
2023-01-11T09:00:21.557Z,6.27
2023-01-11T09:02:49.590Z,12.50
2023-01-11T09:05:18.439Z,5.70
2023-01-11T09:07:46.754Z,5.40
2023-01-11T09:10:17.063Z,6.47
2023-01-11T09:12:45.211Z,7.60
2023-01-11T09:15:13.330Z,13.23
2023-01-11T09:17:41.546Z,6.93
2023-01-11T09:20:12.029Z,14.23
2023-01-11T09:22:40.099Z,6.43
2023-01-11T09:25:09.831Z,5.20
2023-01-11T09:27:39.194Z,7.20
2023-01-11T09:30:08.473Z,5.13
2023-01-11T09:32:36.437Z,5.50
2023-01-11T09:35:04.932Z,5.83
2023-01-11T09:37:33.069Z,5.20
2023-01-11T09:40:01.678Z,5.10
2023-01-11T09:42:37.698Z,7.77
2023-01-11T09:45:14.340Z,4.23
2023-01-11T09:47:45.705Z,9.33
2023-01-11T09:50:18.774Z,8.20
2023-01-11T09:52:51.365Z,13.00
2023-01-11T09:55:24.613Z,4.60
2023-01-11T09:58:05.900Z,8.07
2023-01-11T10:00:43.204Z,8.63
2023-01-11T10:03:27.180Z,8.97
2023-01-11T10:06:02.151Z,7.40
2023-01-11T10:18:26.730Z,7.80
2023-01-11T10:18:28.492Z,9.53
2023-01-11T10:20:35.449Z,9.60
2023-01-11T10:23:06.331Z,5.80
2023-01-11T10:25:42.665Z,8.67
2023-01-11T10:28:22.943Z,10.23
2023-01-11T10:31:07.810Z,5.07
2023-01-11T10:34:05.843Z,7.40
2023-01-11T10:36:55.647Z,8.03
2023-01-11T10:39:46.458Z,7.03
2023-01-11T10:42:21.263Z,7.87
2023-01-11T10:44:55.720Z,9.37
2023-01-11T10:47:27.814Z,9.80
2023-01-11T10:50:00.265Z,16.40
2023-01-11T10:52:34.895Z,8.03
2023-01-11T10:55:12.813Z,15.50
2023-01-11T10:58:01.437Z,6.40
2023-01-11T11:00:39.315Z,8.97
2023-01-11T11:03:21.176Z,9.80
2023-01-11T11:05:55.033Z,11.07
2023-01-11T11:08:28.677Z,8.37
2023-01-11T11:11:01.250Z,5.73
2023-01-11T11:13:43.306Z,18.20
2023-01-11T11:16:16.280Z,7.40
2023-01-11T11:18:44.242Z,8.53
2023-01-11T11:21:22.651Z,9.70
2023-01-11T11:23:55.249Z,9.63
2023-01-11T11:26:26.273Z,8.50
2023-01-11T11:29:04.212Z,6.10
2023-01-11T11:31:32.796Z,12.67
2023-01-11T11:34:07.037Z,8.47
2023-01-11T11:36:43.434Z,10.43
2023-01-11T11:39:12.940Z,9.43
2023-01-11T11:41:48.932Z,8.13
2023-01-11T11:44:19.385Z,7.17
2023-01-11T11:47:00.439Z,8.47
2023-01-11T11:49:28.887Z,9.37
2023-01-11T11:51:58.228Z,10.77
2023-01-11T11:54:29.332Z,13.37
2023-01-11T11:56:58.814Z,11.40
2023-01-11T11:59:29.944Z,9.40
2023-01-11T12:02:00.366Z,11.13
2023-01-11T12:04:41.536Z,10.20
2023-01-11T12:07:16.058Z,8.60
2023-01-11T12:09:46.732Z,14.60
2023-01-11T12:12:19.305Z,12.83
2023-01-11T12:15:08.580Z,10.17
2023-01-11T12:17:36.337Z,9.63
2023-01-11T12:20:09.192Z,8.67
2023-01-11T12:22:38.236Z,9.40
2023-01-11T12:25:21.501Z,12.40
2023-01-11T12:27:57.269Z,11.03
2023-01-11T12:30:28.068Z,10.93
2023-01-11T12:33:17.769Z,10.20
2023-01-11T12:35:52.871Z,9.80
2023-01-11T12:38:32.620Z,10.83
2023-01-11T12:41:13.580Z,11.57
2023-01-11T12:43:51.569Z,5.53
2023-01-11T12:46:26.685Z,20.87
2023-01-11T12:49:10.360Z,9.70
2023-01-11T12:51:47.642Z,13.47
2023-01-11T12:54:37.972Z,8.57
2023-01-11T12:57:15.185Z,29.07
2023-01-11T13:00:11.411Z,4.80
2023-01-11T13:03:06.701Z,23.00
2023-01-11T13:05:39.411Z,8.67
2023-01-11T13:08:13.752Z,10.80
2023-01-11T13:10:52.736Z,9.33
2023-01-11T13:13:26.573Z,18.33
2023-01-11T13:15:58.121Z,15.20
2023-01-11T13:18:32.233Z,13.13
2023-01-11T13:21:05.067Z,8.93
2023-01-11T13:23:39.328Z,14.60
2023-01-11T13:26:16.772Z,18.50
2023-01-11T13:28:46.688Z,15.30
2023-01-11T13:31:15.058Z,12.60
2023-01-11T13:33:45.109Z,12.63
2023-01-11T13:36:23.143Z,11.70
2023-01-11T13:38:54.523Z,10.43
2023-01-11T13:41:25.159Z,10.57
2023-01-11T13:43:59.872Z,11.10
2023-01-11T13:46:41.056Z,14.30
2023-01-11T13:49:15.845Z,13.03
2023-01-11T13:51:49.118Z,10.77
2023-01-11T13:54:20.024Z,11.00
2023-01-11T13:56:54.988Z,13.50
2023-01-11T13:59:28.182Z,9.40
2023-01-11T14:01:59.299Z,14.03
2023-01-11T14:04:31.021Z,12.03
2023-01-11T14:07:14.843Z,12.30
2023-01-11T14:09:59.067Z,16.47
2023-01-11T14:12:41.347Z,12.77
2023-01-11T14:15:19.208Z,12.20
2023-01-11T14:18:05.614Z,21.23
2023-01-11T14:20:38.603Z,15.53
2023-01-11T14:23:22.413Z,17.73
2023-01-11T14:26:09.035Z,18.53
2023-01-11T14:28:50.011Z,22.17
2023-01-11T14:31:45.915Z,13.80
2023-01-11T14:34:36.582Z,24.03
2023-01-11T14:37:32.440Z,19.30
2023-01-11T14:40:25.034Z,10.93
2023-01-11T14:43:05.856Z,14.40
2023-01-11T14:45:47.120Z,17.27
2023-01-11T14:48:25.885Z,12.60
2023-01-11T14:51:13.727Z,12.90
2023-01-11T14:53:45.385Z,13.63
2023-01-11T14:56:35.586Z,15.13
2023-01-11T14:59:04.195Z,10.53
2023-01-11T15:02:08.406Z,18.50
2023-01-11T15:04:39.363Z,16.37
2023-01-11T15:07:23.791Z,12.50
2023-01-11T15:09:53.492Z,13.90
2023-01-11T15:12:22.971Z,12.10
2023-01-11T15:14:54.564Z,20.73
2023-01-11T15:17:44.100Z,15.57
2023-01-11T15:20:14.431Z,12.03
2023-01-11T15:22:42.312Z,14.10
2023-01-11T15:25:21.816Z,10.33
2023-01-11T15:27:49.918Z,12.27
2023-01-11T15:30:38.670Z,14.53
2023-01-11T15:33:44.720Z,12.27
2023-01-11T15:36:12.796Z,11.93
2023-01-11T15:38:43.946Z,16.43
2023-01-11T15:41:33.002Z,12.60
2023-01-11T15:44:08.857Z,13.83
2023-01-11T15:47:26.922Z,7.33
2023-01-11T15:50:18.405Z,12.93
2023-01-11T15:53:10.115Z,10.00
2023-01-11T15:56:04.058Z,14.47
2023-01-11T15:59:09.286Z,11.90
2023-01-11T16:01:48.314Z,14.90
2023-01-11T16:04:28.605Z,9.53
2023-01-11T16:06:59.464Z,13.23
2023-01-11T16:09:53.047Z,17.40
2023-01-11T16:12:48.563Z,11.13
2023-01-11T16:15:32.039Z,14.67
2023-01-11T16:18:06.495Z,11.23
2023-01-11T16:20:34.250Z,18.50
2023-01-11T16:23:05.838Z,13.07
2023-01-11T16:25:35.970Z,10.53
2023-01-11T16:28:03.986Z,10.07
2023-01-11T16:30:31.845Z,14.50
2023-01-11T16:33:15.843Z,11.97
2023-01-11T16:35:43.677Z,15.67
2023-01-11T16:38:17.227Z,14.40
2023-01-11T16:40:48.528Z,14.23
2023-01-11T16:43:19.091Z,11.60
2023-01-11T16:45:48.240Z,19.93
2023-01-11T16:48:17.932Z,15.10
2023-01-11T16:50:48.721Z,13.53
2023-01-11T16:53:18.095Z,15.17
2023-01-11T16:55:55.078Z,10.60
2023-01-11T16:58:26.968Z,13.03
2023-01-11T17:00:59.637Z,18.37
2023-01-11T17:03:28.810Z,10.60
2023-01-11T17:06:18.441Z,14.73
2023-01-11T17:08:49.962Z,16.37
2023-01-11T17:11:25.894Z,13.50
2023-01-11T17:14:33.368Z,21.23
2023-01-11T17:17:03.468Z,14.43
2023-01-11T17:19:33.653Z,15.87
2023-01-11T17:22:05.288Z,16.33
2023-01-11T17:24:37.774Z,16.07
2023-01-11T17:27:08.959Z,13.10
2023-01-11T17:29:40.210Z,18.93
2023-01-11T17:32:09.335Z,15.60
2023-01-11T17:34:37.988Z,22.80
2023-01-11T17:37:10.304Z,23.00
2023-01-11T17:39:42.740Z,17.17
2023-01-11T17:42:30.793Z,14.97
2023-01-11T17:45:14.418Z,11.47
2023-01-11T17:47:43.501Z,11.40
2023-01-11T17:50:20.992Z,16.73
2023-01-11T17:52:54.792Z,17.93
2023-01-11T17:55:26.017Z,14.63
2023-01-11T17:58:22.609Z,16.03
2023-01-11T18:01:10.995Z,16.13
2023-01-11T18:03:43.850Z,16.80
2023-01-11T18:06:13.633Z,23.30
2023-01-11T18:08:47.027Z,25.57
2023-01-11T18:11:23.382Z,14.93
2023-01-11T18:13:52.384Z,18.43
2023-01-11T18:16:20.796Z,14.40
2023-01-11T18:18:51.400Z,22.97
2023-01-11T18:21:52.657Z,11.77
2023-01-11T18:24:43.377Z,19.27
2023-01-11T18:27:25.993Z,24.43
2023-01-11T18:29:55.574Z,20.30
2023-01-11T18:32:23.438Z,12.30
2023-01-11T18:34:55.420Z,19.60
2023-01-11T18:37:23.495Z,13.53
2023-01-11T18:39:52.427Z,18.73
2023-01-11T18:42:25.814Z,18.60
2023-01-11T18:44:53.599Z,9.80
2023-01-11T18:47:23.174Z,15.60
2023-01-11T18:49:52.063Z,30.63
2023-01-11T18:52:20.664Z,12.40
2023-01-11T18:54:48.566Z,18.80
2023-01-11T18:57:16.199Z,22.77
2023-01-11T18:59:45.151Z,23.20
2023-01-11T19:02:18.277Z,15.53
2023-01-11T19:04:46.443Z,19.17
2023-01-11T19:07:14.884Z,15.60
2023-01-11T19:09:44.935Z,18.40
2023-01-11T19:12:13.477Z,19.27
2023-01-11T19:14:41.357Z,19.80
2023-01-11T19:17:10.962Z,18.20
2023-01-11T19:19:38.633Z,15.40
2023-01-11T19:22:07.222Z,22.17
2023-01-11T19:24:35.226Z,19.53
2023-01-11T19:27:03.300Z,18.23
2023-01-11T19:29:31.844Z,17.97
2023-01-11T19:31:59.744Z,15.77
2023-01-11T19:34:28.857Z,19.80
2023-01-11T19:36:56.567Z,24.13
2023-01-11T19:39:24.220Z,14.90
2023-01-11T19:41:55.045Z,23.83
2023-01-11T19:44:24.033Z,25.20
2023-01-11T19:46:57.068Z,18.33
2023-01-11T19:49:39.122Z,15.70
2023-01-11T19:52:12.142Z,13.90
2023-01-11T19:54:41.705Z,14.93
2023-01-11T19:57:10.717Z,12.63
2023-01-11T19:59:38.456Z,19.93
2023-01-11T20:02:06.304Z,19.10
2023-01-11T20:04:34.400Z,18.60
2023-01-11T20:07:03.824Z,22.37
2023-01-11T20:09:31.821Z,24.17
2023-01-11T20:11:59.797Z,11.93
2023-01-11T20:14:27.783Z,15.30
2023-01-11T20:16:55.531Z,15.83
2023-01-11T20:19:23.214Z,22.37
2023-01-11T20:21:51.008Z,13.63
2023-01-11T20:24:20.068Z,13.80
2023-01-11T20:26:47.942Z,14.30
2023-01-11T20:29:15.825Z,17.27
2023-01-11T20:31:43.611Z,18.77
2023-01-11T20:34:12.864Z,9.43
2023-01-11T20:36:40.705Z,21.27
2023-01-11T20:39:09.199Z,18.30
2023-01-11T20:41:50.979Z,20.43
2023-01-11T20:44:20.076Z,18.30
2023-01-11T20:46:48.578Z,16.40
2023-01-11T20:49:17.110Z,16.27
2023-01-11T20:51:45.808Z,18.10
2023-01-11T20:54:13.846Z,17.80
2023-01-11T20:56:46.398Z,24.73
2023-01-11T20:59:16.470Z,20.50
2023-01-11T21:01:44.431Z,21.87
2023-01-11T21:04:13.149Z,18.37
2023-01-11T21:06:42.536Z,21.83
2023-01-11T21:09:11.470Z,20.70
2023-01-11T21:11:40.773Z,13.50
2023-01-11T21:14:12.056Z,13.83
2023-01-11T21:16:41.740Z,24.00
2023-01-11T21:19:12.352Z,15.57
2023-01-11T21:21:40.242Z,13.37
2023-01-11T21:24:09.188Z,28.57
2023-01-11T21:26:37.188Z,21.90
2023-01-11T21:29:06.228Z,20.57
2023-01-11T21:31:36.710Z,23.20
2023-01-11T21:34:04.872Z,15.57
2023-01-11T21:36:32.920Z,10.30
2023-01-11T21:39:02.477Z,18.50
2023-01-11T21:41:48.984Z,17.07
2023-01-11T21:44:17.417Z,13.10
2023-01-11T21:46:47.046Z,14.70
2023-01-11T21:49:15.318Z,26.23
2023-01-11T21:51:43.755Z,13.40
2023-01-11T21:54:13.145Z,22.60
2023-01-11T21:56:41.755Z,16.77
2023-01-11T21:59:09.644Z,12.43
2023-01-11T22:01:41.385Z,12.90
2023-01-11T22:04:12.194Z,19.53
2023-01-11T22:06:41.545Z,14.77
2023-01-11T22:09:11.356Z,26.57
2023-01-11T22:11:39.667Z,12.23
2023-01-11T22:14:08.539Z,14.70
2023-01-11T22:16:36.883Z,17.73
2023-01-11T22:19:06.094Z,14.93
2023-01-11T22:21:35.609Z,14.47
2023-01-11T22:24:03.463Z,21.57
2023-01-11T22:26:33.463Z,15.97
2023-01-11T22:29:14.942Z,13.10
2023-01-11T22:31:45.406Z,21.03
2023-01-11T22:34:14.400Z,14.47
2023-01-11T22:36:43.877Z,18.70
2023-01-11T22:39:11.846Z,17.27
2023-01-11T22:41:40.538Z,14.50
2023-01-11T22:44:08.368Z,15.23
2023-01-11T22:46:36.216Z,13.97
2023-01-11T22:49:06.065Z,11.93
2023-01-11T22:51:34.114Z,17.30
2023-01-11T22:54:03.443Z,19.37
2023-01-11T22:56:31.181Z,17.90
2023-01-11T22:58:59.550Z,17.10
2023-01-11T23:01:28.848Z,15.30
2023-01-11T23:03:57.306Z,12.10
2023-01-11T23:06:26.564Z,15.60
2023-01-11T23:08:54.512Z,17.37
2023-01-11T23:11:42.417Z,8.63
2023-01-11T23:14:12.213Z,17.77
2023-01-11T23:16:40.430Z,13.37
2023-01-11T23:19:08.989Z,9.83
2023-01-11T23:21:36.849Z,17.17
2023-01-11T23:24:05.056Z,11.10
2023-01-11T23:26:34.016Z,12.57
2023-01-11T23:29:01.804Z,12.43
2023-01-11T23:31:30.504Z,12.10
2023-01-11T23:34:00.205Z,14.13
2023-01-11T23:36:29.316Z,11.97
2023-01-11T23:38:57.087Z,16.13
2023-01-11T23:41:42.723Z,13.03
2023-01-11T23:44:13.758Z,14.07
2023-01-11T23:47:00.149Z,9.97
2023-01-11T23:49:28.751Z,18.53
2023-01-11T23:51:56.709Z,12.90
2023-01-11T23:54:27.227Z,13.97
2023-01-11T23:56:55.109Z,18.10
2023-01-11T23:59:24.065Z,12.17
